Map

Track Data

SID SEASON NUMBER BASIN SUBBASIN NAME ISO_TIME NATURE LAT LON WMO_WIND WMO_PRES WMO_AGENCY TRACK_TYPE DIST2LAND LANDFALL IFLAG USA_AGENCY USA_ATCF_ID USA_LAT USA_LON USA_RECORD USA_STATUS USA_WIND USA_PRES USA_SSHS USA_R34_NE USA_R34_SE USA_R34_SW USA_R34_NW USA_R50_NE USA_R50_SE USA_R50_SW USA_R50_NW USA_R64_NE USA_R64_SE USA_R64_SW USA_R64_NW USA_POCI USA_ROCI USA_RMW USA_EYE TOKYO_LAT TOKYO_LON TOKYO_GRADE TOKYO_WIND TOKYO_PRES TOKYO_R50_DIR TOKYO_R50_LONG TOKYO_R50_SHORT TOKYO_R30_DIR TOKYO_R30_LONG TOKYO_R30_SHORT TOKYO_LAND CMA_LAT CMA_LON CMA_CAT CMA_WIND CMA_PRES HKO_LAT HKO_LON HKO_CAT HKO_WIND HKO_PRES NEWDELHI_LAT NEWDELHI_LON NEWDELHI_GRADE NEWDELHI_WIND NEWDELHI_PRES NEWDELHI_CI NEWDELHI_DP NEWDELHI_POCI REUNION_LAT REUNION_LON REUNION_TYPE REUNION_WIND REUNION_PRES REUNION_TNUM REUNION_CI REUNION_RMW REUNION_R34_NE REUNION_R34_SE REUNION_R34_SW REUNION_R34_NW REUNION_R50_NE REUNION_R50_SE REUNION_R50_SW REUNION_R50_NW REUNION_R64_NE REUNION_R64_SE REUNION_R64_SW REUNION_R64_NW BOM_LAT BOM_LON BOM_TYPE BOM_WIND BOM_PRES BOM_TNUM BOM_CI BOM_RMW BOM_R34_NE BOM_R34_SE BOM_R34_SW BOM_R34_NW BOM_R50_NE BOM_R50_SE BOM_R50_SW BOM_R50_NW BOM_R64_NE BOM_R64_SE BOM_R64_SW BOM_R64_NW BOM_ROCI BOM_POCI BOM_EYE BOM_POS_METHOD BOM_PRES_METHOD NADI_LAT NADI_LON NADI_CAT NADI_WIND NADI_PRES WELLINGTON_LAT WELLINGTON_LON WELLINGTON_WIND WELLINGTON_PRES DS824_LAT DS824_LON DS824_STAGE DS824_WIND DS824_PRES TD9636_LAT TD9636_LON TD9636_STAGE TD9636_WIND TD9636_PRES TD9635_LAT TD9635_LON TD9635_WIND TD9635_PRES TD9635_ROCI NEUMANN_LAT NEUMANN_LON NEUMANN_CLASS NEUMANN_WIND NEUMANN_PRES MLC_LAT MLC_LON MLC_CLASS MLC_WIND MLC_PRES USA_GUST BOM_GUST BOM_GUST_PER REUNION_GUST REUNION_GUST_PER USA_SEAHGT USA_SEARAD_NE USA_SEARAD_SE USA_SEARAD_SW USA_SEARAD_NW STORM_SPEED STORM_DIR
1970064S19153 1970 27 SP EA NOT_NAMED 1970-03-04 12:00:00 TS -18.6000 153.000 main 479 479 O________OO___ jtwc_sh SH221970 -18.6000 153.000 -1 -18.6000 153.000 TC -18.6000 153.000 2 34 73
1970064S19153 1970 27 SP EA NOT_NAMED 1970-03-04 15:00:00 TS -18.0969 154.687 main 636 636 P________PP___ SH221970 -18.0720 154.740 -1 -18.0720 154.740 TC -18.1469 154.581 2 31 72
1970064S19153 1970 27 SP EA NOT_NAMED 1970-03-04 18:00:00 TS -17.6358 156.122 main 778 778 O________OP___ jtwc_sh SH221970 -17.6000 156.200 -1 -17.6000 156.200 TC -17.7073 155.966 2 24 70
1970064S19153 1970 27 SP EA NOT_NAMED 1970-03-04 21:00:00 TS -17.2682 157.080 main 800 781 P________PP___ SH221970 -17.2455 157.136 -1 -17.2455 157.136 TC -17.3137 156.967 2 14 62
1970064S19153 1970 27 SP EA NOT_NAMED 1970-03-05 00:00:00 TS -17.0000 157.400 main 787 787 O________OO___ jtwc_sh SH221970 -17.0000 157.400 -1 -17.0000 157.400 TC -17.0000 157.400 2 5 351
1970064S19153 1970 27 SP EA NOT_NAMED 1970-03-05 03:00:00 TS -16.7961 157.002 main 835 835 P________PP___ SH221970 -16.7980 156.922 -1 -16.7980 156.922 TC -16.7923 157.163 2 12 285
1970064S19153 1970 27 SP EA NOT_NAMED 1970-03-05 06:00:00 TS -16.6973 156.227 main 859 818 O________OP___ jtwc_sh SH221970 -16.7000 156.100 -1 -16.7000 156.100 TC -16.6919 156.481 2 14 275
1970064S19153 1970 27 SP EA NOT_NAMED 1970-03-05 09:00:00 TS -16.6816 155.517 main 811 761 P________PP___ SH221970 -16.6752 155.445 -1 -16.6752 155.445 TC -16.6946 155.659 2 12 265
1970064S19153 1970 27 SP EA NOT_NAMED 1970-03-05 12:00:00 TS -16.8000 155.000 main 761 735 O________OO___ jtwc_sh SH221970 -16.8000 155.000 -1 -16.8000 155.000 TC -16.8000 155.000 2 7 234
1970064S19153 1970 27 SP EA NOT_NAMED 1970-03-05 15:00:00 TS -17.0927 154.915 main 735 717 P________PP___ SH221970 -17.1197 154.930 -1 -17.1197 154.930 TC -17.0386 154.885 2 7 175
1970064S19153 1970 27 SP EA NOT_NAMED 1970-03-05 18:00:00 TS -17.4561 155.061 main 715 703 O________OP___ jtwc_sh SH221970 -17.5000 155.100 -1 -17.5000 155.100 TC -17.3684 154.984 2 8 153
1970064S19153 1970 27 SP EA NOT_NAMED 1970-03-05 21:00:00 TS -17.7679 155.274 main 703 702 P________PP___ SH221970 -17.7949 155.290 -1 -17.7949 155.290 TC -17.7140 155.241 2 8 137
1970064S19153 1970 27 SP EA NOT_NAMED 1970-03-06 00:00:00 TS -18.0000 155.600 main 709 709 O________OO___ jtwc_sh SH221970 -18.0000 155.600 -1 -18.0000 155.600 TC -18.0000 155.600 2 8 115
1970064S19153 1970 27 SP EA NOT_NAMED 1970-03-06 03:00:00 TS -18.0942 156.006 main 732 732 P________PP___ SH221970 -18.0801 156.020 -1 -18.0801 156.020 TC -18.1225 155.976 2 8 99
1970064S19153 1970 27 SP EA NOT_NAMED 1970-03-06 06:00:00 TS -18.1253 156.478 main 771 771 O________OP___ jtwc_sh SH221970 -18.1000 156.500 -1 -18.1000 156.500 TC -18.1758 156.433 2 9 94
1970064S19153 1970 27 SP EA NOT_NAMED 1970-03-06 09:00:00 TS -18.1637 156.946 main 781 731 P________PP___ SH221970 -18.1499 156.958 -1 -18.1499 156.958 TC -18.1912 156.923 2 9 95
1970064S19153 1970 27 SP EA NOT_NAMED 1970-03-06 12:00:00 TS -18.2000 157.400 main 731 691 O________OO___ jtwc_sh SH221970 -18.2000 157.400 -1 -18.2000 157.400 TC -18.2000 157.400 2 8 94
1970064S19153 1970 27 SP EA NOT_NAMED 1970-03-06 15:00:00 TS -18.2282 157.815 main 691 648 P________PP___ SH221970 -18.2499 157.815 -1 -18.2499 157.815 TC -18.1848 157.814 2 8 95
1970064S19153 1970 27 SP EA NOT_NAMED 1970-03-06 18:00:00 TS -18.2599 158.201 main 648 618 O________OP___ jtwc_sh SH221970 -18.3000 158.200 -1 -18.3000 158.200 TC -18.1798 158.204 2 7 95
1970064S19153 1970 27 SP EA NOT_NAMED 1970-03-06 21:00:00 TS -18.2866 158.566 main 609 575 P________PP___ SH221970 -18.3124 158.565 -1 -18.3124 158.565 TC -18.2349 158.567 2 7 102
1970064S19153 1970 27 SP EA NOT_NAMED 1970-03-07 00:00:00 TS -18.4000 158.900 main 575 537 O________OO___ jtwc_sh SH221970 -18.4000 158.900 -1 -18.4000 158.900 TC -18.4000 158.900 2 7 121
1970064S19153 1970 27 SP EA NOT_NAMED 1970-03-07 03:00:00 TS -18.6483 159.211 main 537 493 P________PP___ SH221970 -18.6175 159.215 -1 -18.6175 159.215 TC -18.7101 159.202 2 9 139
1970064S19153 1970 27 SP EA NOT_NAMED 1970-03-07 06:00:00 TS -19.0467 159.493 main 493 456 O________OP___ jtwc_sh SH221970 -19.0000 159.500 -1 -19.0000 159.500 TC -19.1402 159.480 2 11 151
1970064S19153 1970 27 SP EA NOT_NAMED 1970-03-07 09:00:00 TS -19.5851 159.753 main 445 417 P________PP___ SH221970 -19.5526 159.757 -1 -19.5526 159.757 TC -19.6503 159.744 2 13 158
1970064S19153 1970 27 SP MM NOT_NAMED 1970-03-07 12:00:00 TS -20.2000 160.000 main 417 O________OO___ jtwc_sh SH221970 -20.2000 160.000 -1 -20.2000 160.000 TC -20.2000 160.000 2 13 159

Digital Typhoon Data and Search

About IBTrACS Database

This database is a web-friendly format of International Best Track Archive for Climate Stewardship (IBTrACS), a global best track data archive curated by NOAA dating back to 1842.

Updated: 2021-12-01